Time;durP1;ratioP1;P1;durP2;ratioP2;P2;SDS_P1;SDS_P2;PMS_P1;PMS_P2;Temp;Humidity;BMP_temperature;BMP_pressure;BME280_temperature;BME280_humidity;BME280_pressure;Samples;Min_cycle;Max_cycle;Signal;HPM_P1;HPM_P2
2021/04/13 00:00:30;;;;;;;;;;;4.20;99.90;;;;;;5066982;28;19920;-46
2021/04/13 00:02:56;;;;;;;;;;;4.20;99.90;;;;;;5069280;28;19928;-46
2021/04/13 00:05:44;;;;;;;;;;;4.20;99.90;;;;;;5072116;28;19948;-48
2021/04/13 00:08:11;;;;;;;;;;;4.20;99.90;;;;;;5068066;28;19909;-48
2021/04/13 00:10:39;;;;;;;;;;;4.20;99.90;;;;;;5067924;28;19908;-47
2021/04/13 00:13:05;;;;;;;;;;;4.20;99.90;;;;;;5065817;28;19917;-46
2021/04/13 00:15:38;;;;;;;;;;;4.20;99.90;;;;;;5069088;28;20018;-47
2021/04/13 00:18:04;;;;;;;;;;;4.30;99.90;;;;;;5064285;28;19917;-45
2021/04/13 00:20:33;;;;;;;;;;;4.30;99.90;;;;;;5067951;28;19909;-47
2021/04/13 00:22:59;;;;;;;;;;;4.30;99.90;;;;;;5063660;28;19908;-44
2021/04/13 00:25:30;;;;;;;;;;;4.30;99.90;;;;;;5069798;28;19912;-45
2021/04/13 00:27:56;;;;;;;;;;;4.20;99.90;;;;;;5067262;28;20380;-46
2021/04/13 00:30:24;;;;;;;;;;;4.30;99.90;;;;;;5070033;28;19918;-48
2021/04/13 00:32:56;;;;;;;;;;;4.30;99.90;;;;;;5069702;28;20506;-45
2021/04/13 00:35:34;;;;;;;;;;;4.30;99.90;;;;;;5069773;28;20455;-46
2021/04/13 00:38:19;;;;;;;;;;;4.30;99.90;;;;;;5068773;28;19955;-47
2021/04/13 00:40:45;;;;;;;;;;;4.30;99.90;;;;;;5067906;28;19909;-45
2021/04/13 00:43:12;;;;;;;;;;;4.20;99.90;;;;;;5069171;28;20380;-47
2021/04/13 00:45:38;;;;;;;;;;;4.30;99.90;;;;;;5062557;28;19909;-46
2021/04/13 00:48:04;;;;;;;;;;;4.20;99.90;;;;;;5069906;28;20258;-45
2021/04/13 00:50:32;;;;;;;;;;;4.30;99.90;;;;;;5065370;28;19909;-47
2021/04/13 00:52:58;;;;;;;;;;;4.30;99.90;;;;;;5049026;28;19908;-47
2021/04/13 00:55:29;;;;;;;;;;;4.30;99.90;;;;;;5062691;28;19916;-45
2021/04/13 00:58:16;;;;;;;;;;;4.30;99.90;;;;;;5066794;28;20288;-45
2021/04/13 01:00:47;;;;;;;;;;;4.30;99.90;;;;;;5064445;28;19920;-46
2021/04/13 01:03:13;;;;;;;;;;;4.30;99.90;;;;;;5069747;28;19908;-44
2021/04/13 01:05:40;;;;;;;;;;;4.30;99.90;;;;;;5067524;28;19908;-46
2021/04/13 01:08:18;;;;;;;;;;;4.30;99.90;;;;;;5068618;28;19908;-45
2021/04/13 01:10:44;;;;;;;;;;;4.30;99.90;;;;;;5071579;28;19919;-47
2021/04/13 01:13:10;;;;;;;;;;;4.30;99.90;;;;;;5062566;28;19908;-46
2021/04/13 01:15:39;;;;;;;;;;;4.30;99.90;;;;;;5073324;28;19912;-47
2021/04/13 01:18:11;;;;;;;;;;;4.30;99.90;;;;;;5062569;28;19924;-47
2021/04/13 01:20:40;;;;;;;;;;;4.30;99.90;;;;;;5070334;28;19939;-46
2021/04/13 01:25:33;;;;;;;;;;;4.30;99.90;;;;;;5071800;28;20357;-45
2021/04/13 01:28:00;;;;;;;;;;;4.30;99.90;;;;;;5073243;28;19908;-44
2021/04/13 01:30:30;;;;;;;;;;;4.30;99.90;;;;;;5072316;28;19916;-47
2021/04/13 01:33:25;;;;;;;;;;;4.30;99.90;;;;;;5069714;28;19920;-45
2021/04/13 01:35:57;;;;;;;;;;;4.30;99.90;;;;;;5060287;28;19909;-46
2021/04/13 01:38:40;;;;;;;;;;;4.30;99.90;;;;;;5068622;28;20381;-45
2021/04/13 01:43:40;;;;;;;;;;;4.20;99.90;;;;;;5079259;28;20380;-44
2021/04/13 01:46:07;;;;;;;;;;;4.20;99.90;;;;;;5071126;28;20284;-46
2021/04/13 01:48:33;;;;;;;;;;;4.30;99.90;;;;;;5073072;28;20245;-46
2021/04/13 01:51:00;;;;;;;;;;;4.30;99.90;;;;;;5072101;28;19908;-47
2021/04/13 01:53:26;;;;;;;;;;;4.20;99.90;;;;;;5068847;28;20376;-46
2021/04/13 01:55:53;;;;;;;;;;;4.20;99.90;;;;;;5071836;28;19931;-47
2021/04/13 01:58:24;;;;;;;;;;;4.20;99.90;;;;;;5068882;28;19916;-48
2021/04/13 02:00:58;;;;;;;;;;;4.20;99.90;;;;;;5066850;28;19912;-47
2021/04/13 02:03:28;;;;;;;;;;;4.20;99.90;;;;;;5067272;28;19909;-47
2021/04/13 02:05:57;;;;;;;;;;;4.20;99.90;;;;;;5083075;28;20293;-45
2021/04/13 02:08:29;;;;;;;;;;;4.20;99.90;;;;;;5072132;28;19905;-46
2021/04/13 02:10:55;;;;;;;;;;;4.20;99.90;;;;;;5071493;28;19931;-47
2021/04/13 02:13:27;;;;;;;;;;;4.20;99.90;;;;;;5072932;28;20345;-46
2021/04/13 02:16:06;;;;;;;;;;;4.20;99.90;;;;;;5064741;28;19931;-45
2021/04/13 02:18:39;;;;;;;;;;;4.20;99.90;;;;;;5068238;28;20467;-47
2021/04/13 02:21:29;;;;;;;;;;;4.20;99.90;;;;;;5066613;28;19915;-45
2021/04/13 02:24:18;;;;;;;;;;;4.00;99.90;;;;;;5072021;28;19908;-45
2021/04/13 02:26:45;;;;;;;;;;;4.00;99.90;;;;;;5071490;28;19932;-46
2021/04/13 02:29:11;;;;;;;;;;;3.90;99.90;;;;;;5068370;28;19915;-46
2021/04/13 02:31:47;;;;;;;;;;;3.90;99.90;;;;;;5065607;28;19928;-45
2021/04/13 02:34:16;;;;;;;;;;;3.80;99.90;;;;;;5080993;28;20387;-44
2021/04/13 02:36:49;;;;;;;;;;;3.70;99.90;;;;;;5064485;28;19941;-47
2021/04/13 02:39:18;;;;;;;;;;;3.70;99.90;;;;;;5071928;28;19908;-47
2021/04/13 02:41:47;;;;;;;;;;;3.60;99.90;;;;;;5067900;28;19952;-45
2021/04/13 02:44:13;;;;;;;;;;;3.60;99.90;;;;;;5072069;28;19912;-47
2021/04/13 02:46:39;;;;;;;;;;;3.60;99.90;;;;;;5070213;28;19915;-46
2021/04/13 02:49:12;;;;;;;;;;;3.60;99.90;;;;;;5071401;28;19908;-47
2021/04/13 02:51:39;;;;;;;;;;;3.60;99.90;;;;;;5068341;28;20261;-47
2021/04/13 02:54:06;;;;;;;;;;;3.70;99.90;;;;;;5063561;28;19909;-46
2021/04/13 02:56:33;;;;;;;;;;;3.70;99.90;;;;;;5068786;28;19916;-46
2021/04/13 02:59:11;;;;;;;;;;;3.70;99.90;;;;;;5065926;28;19924;-46
2021/04/13 03:01:41;;;;;;;;;;;3.60;99.90;;;;;;5065263;28;19919;-47
2021/04/13 03:04:08;;;;;;;;;;;3.60;99.90;;;;;;5069675;28;19916;-45
2021/04/13 03:06:52;;;;;;;;;;;3.50;99.90;;;;;;5066983;28;20364;-45
2021/04/13 03:09:23;;;;;;;;;;;3.50;99.90;;;;;;5068518;28;19908;-46
2021/04/13 03:11:58;;;;;;;;;;;3.40;99.90;;;;;;5069835;28;19919;-45
2021/04/13 03:14:25;;;;;;;;;;;3.30;99.90;;;;;;5066260;28;20399;-44
2021/04/13 03:16:52;;;;;;;;;;;3.20;99.90;;;;;;5068077;28;20281;-46
2021/04/13 03:19:19;;;;;;;;;;;3.20;99.90;;;;;;5071648;28;19908;-47
2021/04/13 03:21:52;;;;;;;;;;;3.10;99.90;;;;;;5069819;28;19909;-44
2021/04/13 03:24:22;;;;;;;;;;;3.10;99.90;;;;;;5070351;28;19908;-47
2021/04/13 03:26:52;;;;;;;;;;;3.00;99.90;;;;;;5061354;28;19916;-45
2021/04/13 03:29:41;;;;;;;;;;;2.90;99.90;;;;;;5069945;28;19916;-46
2021/04/13 03:32:07;;;;;;;;;;;2.80;99.90;;;;;;5065767;28;20361;-45
2021/04/13 03:34:33;;;;;;;;;;;2.80;99.90;;;;;;5069054;28;19940;-47
2021/04/13 03:36:59;;;;;;;;;;;2.80;99.90;;;;;;5068390;28;20422;-47
2021/04/13 03:39:26;;;;;;;;;;;2.70;99.90;;;;;;5063587;28;20352;-44
2021/04/13 03:41:52;;;;;;;;;;;2.60;99.90;;;;;;5065228;28;19908;-47
2021/04/13 03:44:18;;;;;;;;;;;2.50;99.90;;;;;;5066883;28;19916;-45
2021/04/13 03:46:44;;;;;;;;;;;2.50;99.90;;;;;;5067210;28;20373;-44
2021/04/13 03:49:14;;;;;;;;;;;2.40;99.90;;;;;;5068590;28;19909;-47
2021/04/13 03:51:41;;;;;;;;;;;2.40;99.90;;;;;;5064257;28;19924;-46
2021/04/13 03:54:21;;;;;;;;;;;2.10;99.90;;;;;;5061519;28;19908;-48
2021/04/13 03:56:48;;;;;;;;;;;2.20;99.90;;;;;;5063515;28;20393;-46
2021/04/13 03:59:18;;;;;;;;;;;2.20;99.90;;;;;;5063586;28;19928;-46
2021/04/13 04:01:46;;;;;;;;;;;2.20;99.90;;;;;;5057592;28;19915;-46
2021/04/13 04:04:19;;;;;;;;;;;2.10;99.90;;;;;;5064171;28;19905;-45
2021/04/13 04:06:51;;;;;;;;;;;1.80;99.90;;;;;;5064080;28;19908;-45
2021/04/13 04:09:17;;;;;;;;;;;1.90;99.90;;;;;;5066603;28;19916;-46
2021/04/13 04:11:43;;;;;;;;;;;1.90;99.90;;;;;;5063604;28;19998;-44
2021/04/13 04:14:13;;;;;;;;;;;1.90;99.90;;;;;;5060817;28;20284;-45
2021/04/13 04:16:39;;;;;;;;;;;1.90;99.90;;;;;;5062891;28;19904;-44
2021/04/13 04:19:24;;;;;;;;;;;2.00;99.90;;;;;;5069929;28;20358;-45
2021/04/13 04:22:08;;;;;;;;;;;2.00;99.90;;;;;;5061994;28;19919;-46
2021/04/13 04:24:35;;;;;;;;;;;2.00;99.90;;;;;;5071678;28;19919;-46
2021/04/13 04:27:02;;;;;;;;;;;2.00;99.90;;;;;;5071365;28;19904;-46
2021/04/13 04:29:31;;;;;;;;;;;2.00;99.90;;;;;;5072137;28;19913;-47
2021/04/13 04:32:17;;;;;;;;;;;2.00;99.90;;;;;;5058883;28;19920;-46
2021/04/13 04:34:43;;;;;;;;;;;2.00;99.90;;;;;;5069639;28;20365;-46
2021/04/13 04:37:19;;;;;;;;;;;2.10;99.90;;;;;;5069487;28;19924;-44
2021/04/13 04:39:45;;;;;;;;;;;2.10;99.90;;;;;;5055215;28;20385;-48
2021/04/13 04:42:28;;;;;;;;;;;2.10;99.90;;;;;;5054070;28;19955;-46
2021/04/13 04:45:09;;;;;;;;;;;2.20;99.90;;;;;;5055288;28;19904;-46
2021/04/13 04:47:38;;;;;;;;;;;2.20;99.90;;;;;;5061547;28;19909;-47
2021/04/13 04:50:05;;;;;;;;;;;2.30;99.90;;;;;;5076172;28;20349;-47
2021/04/13 04:52:30;;;;;;;;;;;2.40;99.90;;;;;;5076435;28;19919;-47
2021/04/13 04:54:56;;;;;;;;;;;2.50;99.90;;;;;;5076512;28;19909;-46
2021/04/13 04:57:22;;;;;;;;;;;2.60;99.90;;;;;;5076616;28;19917;-45
2021/04/13 04:59:48;;;;;;;;;;;2.60;99.90;;;;;;5076478;28;19912;-46
2021/04/13 05:02:14;;;;;;;;;;;2.60;99.90;;;;;;5076035;28;20389;-46
2021/04/13 05:04:41;;;;;;;;;;;2.70;99.90;;;;;;5076257;28;19916;-46
2021/04/13 05:07:07;;;;;;;;;;;2.80;99.90;;;;;;5076128;28;19908;-45
2021/04/13 05:09:33;;;;;;;;;;;2.90;99.90;;;;;;5076022;28;20345;-45
2021/04/13 05:11:59;;;;;;;;;;;2.90;99.90;;;;;;5076003;28;19912;-45
2021/04/13 05:14:25;;;;;;;;;;;3.00;99.90;;;;;;5075739;28;19915;-48
2021/04/13 05:16:53;;;;;;;;;;;3.00;99.90;;;;;;5075994;28;19908;-45
2021/04/13 05:19:20;;;;;;;;;;;3.00;99.90;;;;;;5075605;28;20349;-47
2021/04/13 05:21:46;;;;;;;;;;;2.90;99.90;;;;;;5075817;28;19909;-46
2021/04/13 05:24:12;;;;;;;;;;;2.70;99.90;;;;;;5075432;28;20368;-49
2021/04/13 05:26:38;;;;;;;;;;;2.60;99.90;;;;;;5075754;28;19912;-47
2021/04/13 05:29:06;;;;;;;;;;;2.50;99.90;;;;;;5075931;28;19920;-48
2021/04/13 05:31:33;;;;;;;;;;;2.50;99.90;;;;;;5075636;28;19920;-46
2021/04/13 05:33:59;;;;;;;;;;;2.50;99.90;;;;;;5072819;28;19911;-48
2021/04/13 05:36:25;;;;;;;;;;;2.50;99.90;;;;;;5071756;28;19916;-47
2021/04/13 05:38:51;;;;;;;;;;;2.50;99.90;;;;;;5066808;28;20323;-49
2021/04/13 05:41:17;;;;;;;;;;;2.50;99.90;;;;;;5066135;28;19916;-48
2021/04/13 05:43:43;;;;;;;;;;;2.60;99.90;;;;;;5073122;28;19912;-48
2021/04/13 05:46:11;;;;;;;;;;;2.60;99.90;;;;;;5055657;28;19908;-46
2021/04/13 05:48:37;;;;;;;;;;;2.60;99.90;;;;;;5053240;28;20274;-48
2021/04/13 05:51:03;;;;;;;;;;;2.70;99.90;;;;;;5061355;28;19915;-46
2021/04/13 05:53:28;;;;;;;;;;;2.70;99.90;;;;;;5073246;28;19909;-45
2021/04/13 05:55:54;;;;;;;;;;;2.70;99.90;;;;;;5058732;28;19967;-47
2021/04/13 05:58:34;;;;;;;;;;;2.70;99.90;;;;;;5061865;28;20311;-46
2021/04/13 06:01:01;;;;;;;;;;;2.70;99.90;;;;;;5062615;28;19975;-47
2021/04/13 06:03:27;;;;;;;;;;;2.80;99.90;;;;;;5058762;28;19916;-45
2021/04/13 06:05:56;;;;;;;;;;;2.90;99.90;;;;;;5062453;28;20297;-46
2021/04/13 06:08:22;;;;;;;;;;;3.00;99.90;;;;;;5057563;28;20296;-49
2021/04/13 06:10:49;;;;;;;;;;;3.10;99.90;;;;;;5072364;28;19908;-44
2021/04/13 06:13:15;;;;;;;;;;;3.20;99.90;;;;;;5073457;28;20357;-45
2021/04/13 06:15:41;;;;;;;;;;;3.30;99.90;;;;;;5071280;28;20357;-46
2021/04/13 06:18:07;;;;;;;;;;;3.30;99.90;;;;;;5072456;28;19924;-50
2021/04/13 06:20:33;;;;;;;;;;;3.20;99.90;;;;;;5060557;28;19909;-48
2021/04/13 06:22:59;;;;;;;;;;;3.30;99.90;;;;;;5054651;28;19920;-46
2021/04/13 06:25:25;;;;;;;;;;;3.30;99.90;;;;;;5064336;28;19915;-48
2021/04/13 06:27:51;;;;;;;;;;;3.30;99.90;;;;;;5070200;28;19920;-48
2021/04/13 06:30:18;;;;;;;;;;;3.10;99.90;;;;;;5052399;28;19908;-49
2021/04/13 06:32:44;;;;;;;;;;;3.00;99.90;;;;;;5070799;28;19924;-46
2021/04/13 06:35:10;;;;;;;;;;;3.00;99.90;;;;;;5065589;28;19949;-44
2021/04/13 06:37:37;;;;;;;;;;;3.10;99.90;;;;;;5054590;28;19917;-47
2021/04/13 06:40:04;;;;;;;;;;;3.10;99.90;;;;;;5053162;28;19909;-45
2021/04/13 06:42:41;;;;;;;;;;;3.20;99.90;;;;;;5057714;28;19908;-48
2021/04/13 06:45:14;;;;;;;;;;;3.50;99.90;;;;;;5066971;28;19916;-47
2021/04/13 06:47:52;;;;;;;;;;;3.40;99.90;;;;;;5055071;28;19909;-46
2021/04/13 06:50:35;;;;;;;;;;;3.60;99.90;;;;;;5068212;28;19908;-49
2021/04/13 06:53:27;;;;;;;;;;;3.90;99.90;;;;;;5058027;28;19908;-45
2021/04/13 06:55:53;;;;;;;;;;;4.00;99.90;;;;;;5055557;28;19908;-47
2021/04/13 06:58:38;;;;;;;;;;;3.90;99.90;;;;;;5053701;28;19975;-48
2021/04/13 07:01:07;;;;;;;;;;;3.70;99.90;;;;;;5066007;28;19916;-47
2021/04/13 07:03:33;;;;;;;;;;;3.70;99.90;;;;;;5075356;28;19916;-47
2021/04/13 07:06:05;;;;;;;;;;;3.90;99.90;;;;;;5067631;28;19908;-48
2021/04/13 07:08:41;;;;;;;;;;;4.00;99.90;;;;;;5068991;28;19908;-47
2021/04/13 07:11:15;;;;;;;;;;;3.70;99.90;;;;;;5069752;28;19917;-46
2021/04/13 07:14:00;;;;;;;;;;;4.00;99.90;;;;;;5070100;28;19916;-48
2021/04/13 07:16:29;;;;;;;;;;;3.90;99.90;;;;;;5079769;28;19916;-48
2021/04/13 07:19:02;;;;;;;;;;;4.00;99.90;;;;;;5067730;28;19916;-48
2021/04/13 07:21:48;;;;;;;;;;;4.10;99.90;;;;;;5065922;28;19904;-46
2021/04/13 07:24:22;;;;;;;;;;;3.90;99.90;;;;;;5061310;28;20353;-46
2021/04/13 07:26:53;;;;;;;;;;;4.10;99.90;;;;;;5061337;28;20392;-47
2021/04/13 07:29:21;;;;;;;;;;;4.40;99.90;;;;;;5055153;28;19913;-51
2021/04/13 07:32:06;;;;;;;;;;;4.70;99.90;;;;;;5053771;28;19923;-49
2021/04/13 07:34:32;;;;;;;;;;;4.80;99.90;;;;;;5060601;28;19915;-48
2021/04/13 07:37:06;;;;;;;;;;;5.00;99.90;;;;;;5063284;28;19995;-51
2021/04/13 07:39:32;;;;;;;;;;;4.70;99.90;;;;;;5078228;28;20285;-48
2021/04/13 07:42:01;;;;;;;;;;;4.50;99.90;;;;;;5068901;28;19916;-49
2021/04/13 07:44:29;;;;;;;;;;;4.30;99.90;;;;;;5058524;28;20488;-51
2021/04/13 07:46:58;;;;;;;;;;;4.40;99.90;;;;;;5056317;28;19908;-51
2021/04/13 07:49:30;;;;;;;;;;;4.30;99.90;;;;;;5066874;28;20440;-52
2021/04/13 07:52:15;;;;;;;;;;;4.40;99.90;;;;;;5057462;28;20281;-50
2021/04/13 07:54:44;;;;;;;;;;;4.40;99.90;;;;;;5058614;28;19916;-47
2021/04/13 07:57:28;;;;;;;;;;;4.40;99.90;;;;;;5056370;28;20361;-48
2021/04/13 08:00:13;;;;;;;;;;;5.00;99.90;;;;;;5054215;28;20366;-51
2021/04/13 08:02:39;;;;;;;;;;;5.20;99.90;;;;;;5070758;28;19908;-50
2021/04/13 08:05:06;;;;;;;;;;;5.20;99.90;;;;;;5065565;28;19921;-49
2021/04/13 08:07:33;;;;;;;;;;;5.60;99.90;;;;;;5070373;28;19916;-49
2021/04/13 08:10:16;;;;;;;;;;;5.30;99.90;;;;;;5069323;28;19908;-52
2021/04/13 08:12:53;;;;;;;;;;;5.20;99.90;;;;;;5060943;28;19919;-47
2021/04/13 08:15:20;;;;;;;;;;;5.30;99.90;;;;;;5067782;28;19915;-49
2021/04/13 08:18:06;;;;;;;;;;;5.40;99.90;;;;;;5056776;28;19924;-47
2021/04/13 08:20:34;;;;;;;;;;;3.80;99.90;;;;;;5056519;28;19919;-46
2021/04/13 08:23:00;;;;;;;;;;;3.30;99.90;;;;;;5061871;28;19908;-47
2021/04/13 08:25:29;;;;;;;;;;;3.10;99.90;;;;;;5070069;28;19963;-46
2021/04/13 08:27:59;;;;;;;;;;;3.10;99.90;;;;;;5054411;28;19913;-48
2021/04/13 08:30:28;;;;;;;;;;;3.20;99.90;;;;;;5052381;28;19908;-47
2021/04/13 08:33:04;;;;;;;;;;;3.60;99.90;;;;;;5063354;28;19923;-49
2021/04/13 08:35:36;;;;;;;;;;;3.80;99.90;;;;;;5066539;28;19913;-47
2021/04/13 08:38:04;;;;;;;;;;;3.90;99.90;;;;;;5065329;28;19920;-47
2021/04/13 08:40:37;;;;;;;;;;;3.80;99.90;;;;;;5069398;28;19913;-47
2021/04/13 08:43:07;;;;;;;;;;;4.30;99.90;;;;;;5070120;28;19908;-49
2021/04/13 08:45:33;;;;;;;;;;;5.00;99.90;;;;;;5061793;28;19920;-48
2021/04/13 08:48:00;;;;;;;;;;;5.30;99.90;;;;;;5052668;28;19908;-48
2021/04/13 08:50:33;;;;;;;;;;;4.80;99.90;;;;;;5070340;28;19909;-49
2021/04/13 08:53:08;;;;;;;;;;;4.80;99.90;;;;;;5069779;28;20271;-47
2021/04/13 08:55:36;;;;;;;;;;;4.80;99.90;;;;;;5057545;28;19912;-47
2021/04/13 08:58:24;;;;;;;;;;;4.60;99.90;;;;;;5060913;28;20404;-47
2021/04/13 09:00:51;;;;;;;;;;;4.00;99.90;;;;;;5057732;28;19909;-48
2021/04/13 09:03:18;;;;;;;;;;;4.00;99.90;;;;;;5057539;28;19928;-61
2021/04/13 09:05:44;;;;;;;;;;;3.80;99.90;;;;;;5063712;28;19915;-48
2021/04/13 09:08:14;;;;;;;;;;;3.90;99.90;;;;;;5057889;28;19909;-48
2021/04/13 09:10:40;;;;;;;;;;;3.90;99.90;;;;;;5056078;28;19913;-47
2021/04/13 09:13:11;;;;;;;;;;;4.60;99.90;;;;;;5057989;28;19931;-48
2021/04/13 09:15:45;;;;;;;;;;;5.40;99.90;;;;;;5059362;28;19908;-48
2021/04/13 09:18:15;;;;;;;;;;;7.20;99.90;;;;;;5069707;28;19923;-47
2021/04/13 09:20:48;;;;;;;;;;;8.30;99.90;;;;;;5062626;28;20361;-47
2021/04/13 09:23:18;;;;;;;;;;;8.70;99.90;;;;;;5069123;28;19931;-50
2021/04/13 09:25:54;;;;;;;5.03;0.45;;;8.70;99.90;;;;;;5061472;28;19984;-52
2021/04/13 09:28:22;;;;;;;2.15;0.50;;;8.80;99.90;;;;;;5081286;28;20614;-50
2021/04/13 09:30:49;;;;;;;;;;;10.40;99.90;;;;;;5065820;28;20165;-57
2021/04/13 09:33:18;;;;;;;3.88;0.25;;;10.00;99.90;;;;;;5065429;28;19951;-46
2021/04/13 09:35:58;;;;;;;2.92;0.45;;;7.80;99.90;;;;;;5065808;28;20182;-47
2021/04/13 09:38:33;;;;;;;2.10;0.38;;;7.60;99.90;;;;;;5072000;28;20200;-48
2021/04/13 09:41:02;;;;;;;2.15;0.10;;;7.70;99.90;;;;;;5065676;28;20557;-46
2021/04/13 09:43:34;;;;;;;0.88;0.25;;;7.20;99.90;;;;;;5066213;28;20665;-47
2021/04/13 09:46:09;;;;;;;4.03;0.50;;;7.90;99.90;;;;;;5062825;28;20562;-51
2021/04/13 09:48:58;;;;;;;0.63;0.20;;;9.20;99.90;;;;;;5069999;28;20160;-47
2021/04/13 09:51:37;;;;;;;0.90;0.20;;;7.40;99.90;;;;;;5069932;28;20179;-48
2021/04/13 09:54:27;;;;;;;0.10;0.10;;;8.10;99.90;;;;;;5054050;28;20548;-46
2021/04/13 09:57:19;;;;;;;0.43;0.20;;;8.10;99.90;;;;;;5063160;28;20167;-48
2021/04/13 10:00:10;;;;;;;0.50;0.30;;;8.40;99.90;;;;;;5078680;28;20217;-45
2021/04/13 10:02:54;;;;;;;0.70;0.40;;;8.10;99.90;;;;;;5054017;28;20183;-46
2021/04/13 10:05:38;;;;;;;8.03;0.43;;;7.30;99.90;;;;;;5066945;28;20630;-45
2021/04/13 10:08:16;;;;;;;3.33;0.38;;;7.00;99.90;;;;;;5058694;28;20218;-47
2021/04/13 10:10:57;;;;;;;0.70;0.22;;;6.80;99.90;;;;;;5076146;28;20158;-45
2021/04/13 10:13:59;;;;;;;1.00;0.32;;;6.90;99.90;;;;;;5059504;28;20173;-47
2021/04/13 10:16:47;;;;;;;4.63;0.22;;;6.90;99.90;;;;;;5059815;28;20170;-48
2021/04/13 10:19:48;;;;;;;0.30;0.20;;;7.20;99.90;;;;;;5066263;28;20206;-48
2021/04/13 10:22:33;;;;;;;3.90;0.40;;;7.90;99.90;;;;;;5078827;28;20201;-48
2021/04/13 10:25:18;;;;;;;1.65;0.30;;;8.80;99.90;;;;;;5065431;28;20190;-47
2021/04/13 10:28:21;;;;;;;1.13;0.50;;;8.40;99.90;;;;;;5064854;28;20186;-48
2021/04/13 10:31:15;;;;;;;1.83;0.35;;;7.90;99.90;;;;;;5055474;28;20166;-47
2021/04/13 10:33:55;;;;;;;4.38;0.70;;;5.70;99.90;;;;;;5066376;28;20646;-48
2021/04/13 10:36:24;;;;;;;1.50;0.45;;;5.80;99.90;;;;;;5058923;28;20178;-48
2021/04/13 10:39:04;;;;;;;1.27;0.38;;;5.50;99.90;;;;;;5059772;28;20209;-44
2021/04/13 10:41:55;;;;;;;0.22;0.10;;;5.40;99.90;;;;;;5058826;28;20502;-46
2021/04/13 10:44:47;;;;;;;4.47;0.40;;;5.30;99.90;;;;;;5064207;28;20629;-49
2021/04/13 10:47:44;;;;;;;1.00;0.20;;;5.70;99.90;;;;;;5064599;28;20169;-46
2021/04/13 10:50:37;;;;;;;1.10;0.20;;;6.10;99.90;;;;;;5061620;28;20610;-48
2021/04/13 10:53:31;;;;;;;3.70;0.70;;;6.70;99.90;;;;;;5053365;28;20167;-49
2021/04/13 10:56:03;;;;;;;3.67;0.40;;;7.40;99.90;;;;;;5061135;28;20563;-45
2021/04/13 10:59:07;;;;;;;2.65;0.55;;;7.30;99.90;;;;;;5062529;28;20687;-46
2021/04/13 11:02:06;;;;;;;2.30;0.40;;;7.20;99.90;;;;;;5060550;28;20192;-46
2021/04/13 11:04:42;;;;;;;0.30;0.20;;;7.20;99.90;;;;;;5070251;28;20478;-47
2021/04/13 11:07:35;;;;;;;2.15;0.20;;;7.40;99.90;;;;;;5068643;28;20163;-45
2021/04/13 11:10:29;;;;;;;1.67;0.32;;;8.20;99.90;;;;;;5064245;28;20166;-50
2021/04/13 11:13:18;;;;;;;0.40;0.20;;;9.90;99.90;;;;;;5057893;28;20185;-45
2021/04/13 11:15:54;;;;;;;1.27;0.17;;;9.20;99.90;;;;;;5080201;28;20615;-45
2021/04/13 11:19:14;;;;;;;2.28;0.30;;;7.50;99.90;;;;;;5073796;28;20201;-53
2021/04/13 11:22:28;;;;;;;0.13;0.10;;;6.80;99.90;;;;;;5076880;28;20174;-49
2021/04/13 11:25:00;;;;;;;3.30;0.40;;;6.40;99.90;;;;;;5027843;28;20175;-49
2021/04/13 11:27:44;;;;;;;0.00;0.00;;;6.00;99.90;;;;;;5027865;28;20183;-49
2021/04/13 11:31:05;;;;;;;0.00;0.00;;;5.80;99.90;;;;;;5050801;28;20178;-49
2021/04/13 11:33:43;;;;;;;0.17;0.08;;;5.90;99.90;;;;;;5064034;28;20214;-50
2021/04/13 11:36:24;;;;;;;0.08;0.08;;;6.10;99.90;;;;;;5068344;28;20197;-51
2021/04/13 11:39:00;;;;;;;0.90;0.22;;;6.60;99.90;;;;;;5080875;28;20206;-49
2021/04/13 11:41:35;;;;;;;3.30;0.45;;;6.30;99.90;;;;;;5061540;28;20610;-50
2021/04/13 11:44:21;;;;;;;0.10;0.10;;;6.20;99.90;;;;;;5073381;28;20162;-50
2021/04/13 11:46:47;;;;;;;0.00;0.00;;;5.60;99.90;;;;;;5058765;28;20175;-50
2021/04/13 11:49:42;;;;;;;0.20;0.08;;;5.80;99.90;;;;;;5058572;28;20189;-51
2021/04/13 11:52:20;;;;;;;0.55;0.20;;;5.70;99.90;;;;;;5073166;28;20178;-48
2021/04/13 11:54:54;;;;;;;5.05;0.65;;;6.20;99.90;;;;;;5074630;28;20194;-50
2021/04/13 11:58:01;;;;;;;8.48;0.30;;;6.20;99.90;;;;;;5074919;28;20504;-49
2021/04/13 12:00:29;;;;;;;2.40;0.20;;;6.00;99.90;;;;;;5059234;28;20182;-50
2021/04/13 12:03:07;;;;;;;3.92;0.25;;;6.20;99.90;;;;;;5058324;28;20185;-51
2021/04/13 12:05:34;;;;;;;0.00;0.00;;;6.40;99.90;;;;;;5057675;28;20166;-51
2021/04/13 12:08:01;;;;;;;0.60;0.30;;;6.40;99.90;;;;;;5058493;28;20166;-52
2021/04/13 12:10:30;;;;;;;0.55;0.22;;;6.40;99.90;;;;;;5059810;28;20178;-51
2021/04/13 12:13:17;;;;;;;0.80;0.32;;;6.50;99.90;;;;;;5065659;28;20174;-52
2021/04/13 12:15:46;;;;;;;0.08;0.08;;;6.20;99.90;;;;;;5072044;28;20182;-49
2021/04/13 12:18:50;;;;;;;0.35;0.20;;;6.50;99.90;;;;;;5061552;28;20549;-50
2021/04/13 12:21:22;;;;;;;2.15;0.20;;;7.10;99.90;;;;;;5071861;28;20174;-53
2021/04/13 12:23:54;;;;;;;2.13;0.47;;;7.20;99.90;;;;;;5066558;28;20186;-52
2021/04/13 12:26:37;;;;;;;1.95;0.10;;;6.90;99.90;;;;;;5051990;28;20564;-50
2021/04/13 12:29:27;;;;;;;5.05;0.20;;;6.70;99.90;;;;;;5069175;28;20170;-52
2021/04/13 12:32:11;;;;;;;5.65;0.43;;;6.70;99.90;;;;;;5070529;28;20221;-52
2021/04/13 12:34:46;;;;;;;0.40;0.15;;;7.00;99.90;;;;;;5062653;28;20223;-50
2021/04/13 12:37:45;;;;;;;0.40;0.20;;;6.60;99.90;;;;;;5061664;28;20182;-49
2021/04/13 12:40:24;;;;;;;0.10;0.10;;;6.90;99.90;;;;;;5060490;28;20610;-51
2021/04/13 12:43:06;;;;;;;3.13;0.40;;;6.50;99.90;;;;;;5056472;28;20176;-53
2021/04/13 12:46:01;;;;;;;0.80;0.30;;;6.80;99.90;;;;;;5069631;28;20272;-50
2021/04/13 12:48:41;;;;;;;0.50;0.20;;;6.40;99.90;;;;;;5061005;28;20177;-52
2021/04/13 12:51:11;;;;;;;4.75;0.20;;;6.40;99.90;;;;;;5049042;28;20174;-52
2021/04/13 12:53:37;;;;;;;1.73;0.30;;;6.70;99.90;;;;;;5059074;28;20170;-49
2021/04/13 12:56:12;;;;;;;0.80;0.22;;;6.90;99.90;;;;;;5068178;28;20197;-48
2021/04/13 12:58:41;;;;;;;4.90;0.35;;;7.10;99.90;;;;;;5060168;28;20219;-50
2021/04/13 13:01:08;;;;;;;4.72;0.40;;;6.90;99.90;;;;;;5058350;28;20194;-49
2021/04/13 13:03:39;;;;;;;2.67;0.30;;;7.10;99.90;;;;;;5060528;28;20187;-49
2021/04/13 13:06:26;;;;;;;0.30;0.17;;;6.90;99.90;;;;;;5063647;28;20170;-51
2021/04/13 13:09:01;;;;;;;7.18;0.63;;;6.80;99.90;;;;;;5059658;28;20162;-53
2021/04/13 13:11:27;;;;;;;0.85;0.28;;;8.10;99.90;;;;;;5078870;28;20649;-49
2021/04/13 13:13:54;;;;;;;0.63;0.20;;;8.80;99.90;;;;;;5080673;28;20183;-52
2021/04/13 13:16:25;;;;;;;5.70;2.22;;;8.70;99.90;;;;;;5071276;28;20174;-50
2021/04/13 13:18:52;;;;;;;0.57;0.30;;;9.50;99.90;;;;;;5070686;28;20561;-52
2021/04/13 13:21:28;;;;;;;1.20;0.40;;;9.90;99.90;;;;;;5055231;28;20181;-51
2021/04/13 13:24:00;;;;;;;1.23;0.40;;;10.30;99.90;;;;;;5055673;28;20198;-53
2021/04/13 13:26:26;;;;;;;7.90;1.55;;;10.40;99.90;;;;;;5060122;28;20187;-52
2021/04/13 13:28:52;;;;;;;0.45;0.17;;;11.30;99.90;;;;;;5060066;28;21374;-53
2021/04/13 13:31:25;;;;;;;5.20;0.55;;;11.80;99.90;;;;;;5060485;28;20534;-53
2021/04/13 13:34:00;;;;;;;5.05;0.60;;;10.80;99.90;;;;;;5079444;28;20178;-50
2021/04/13 13:36:35;;;;;;;3.03;0.43;;;10.10;99.90;;;;;;5058820;28;20194;-51
2021/04/13 13:39:09;;;;;;;5.43;0.55;;;9.50;99.60;;;;;;5077527;28;20202;-51
2021/04/13 13:41:35;;;;;;;3.72;0.38;;;9.10;99.90;;;;;;5061133;28;20539;-50
2021/04/13 13:44:01;;;;;;;0.70;0.40;;;9.30;99.90;;;;;;5070193;28;20183;-48
2021/04/13 13:46:31;;;;;;;1.33;0.38;;;9.10;99.90;;;;;;5079337;28;20189;-49
2021/04/13 13:49:15;;;;;;;4.68;0.55;;;10.60;99.90;;;;;;5075780;28;20524;-52
2021/04/13 13:51:41;;;;;;;3.55;1.17;;;9.70;99.90;;;;;;5043725;28;20190;-49
2021/04/13 13:54:25;;;;;;;16.10;1.00;;;10.70;99.90;;;;;;5083900;28;20182;-50
2021/04/13 13:56:52;;;;;;;1.35;0.38;;;10.00;99.00;;;;;;5070800;28;20196;-50
2021/04/13 13:59:24;;;;;;;2.65;0.57;;;9.30;99.00;;;;;;5066907;28;20225;-48
2021/04/13 14:02:00;;;;;;;1.10;0.40;;;9.10;99.90;;;;;;5064001;28;20185;-48
2021/04/13 14:04:30;;;;;;;0.55;0.30;;;8.60;99.90;;;;;;5064092;28;20174;-49
2021/04/13 14:06:57;;;;;;;3.90;0.57;;;8.70;99.90;;;;;;5072982;28;20170;-48
2021/04/13 14:09:23;;;;;;;2.33;0.57;;;9.20;99.90;;;;;;5072280;28;20189;-51
2021/04/13 14:11:49;;;;;;;4.78;0.38;;;9.20;99.90;;;;;;5076098;28;20185;-47
2021/04/13 14:14:24;;;;;;;0.40;0.20;;;9.10;99.90;;;;;;5058379;28;20189;-48
2021/04/13 14:16:55;;;;;;;0.70;0.47;;;9.00;99.90;;;;;;5073094;28;20244;-48
2021/04/13 14:19:24;;;;;;;1.63;0.38;;;10.10;99.90;;;;;;5071863;28;20205;-49
2021/04/13 14:22:01;;;;;;;0.28;0.15;;;10.80;99.40;;;;;;5055723;28;20178;-50
2021/04/13 14:24:33;;;;;;;1.77;0.40;;;10.60;96.90;;;;;;5056816;28;20186;-50
2021/04/13 14:27:15;;;;;;;0.40;0.17;;;9.50;98.30;;;;;;5072747;28;20165;-48
2021/04/13 14:29:50;;;;;;;0.35;0.20;;;9.70;97.80;;;;;;5071692;28;20182;-51
2021/04/13 14:32:17;;;;;;;0.38;0.20;;;10.70;99.90;;;;;;5074187;28;20566;-47
2021/04/13 14:34:43;;;;;;;1.75;0.30;;;10.30;96.10;;;;;;5073368;28;20178;-48